Time;durP1;ratioP1;P1;durP2;ratioP2;P2;SDS_P1;SDS_P2;PMS_P1;PMS_P2;Temp;Humidity;BMP_temperature;BMP_pressure;BME280_temperature;BME280_humidity;BME280_pressure;Samples;Min_cycle;Max_cycle;Signal;HPM_P1;HPM_P2
2021/10/12 00:04:15;;;;;;;73.16666;60.73334;;;;;;;8.332294;76.11306;98883;;;;
2021/10/12 00:14:14;;;;;;;72.46667;60.06667;;;;;;;8.372105;75.65693;98875;;;;
2021/10/12 00:24:12;;;;;;;68.83334;58.8;;;;;;;8.281723;76.58492;98871;;;;
2021/10/12 00:34:11;;;;;;;62.1;54.1;;;;;;;8.312143;77.01671;98863;;;;
2021/10/12 00:44:09;;;;;;;61.6;49.9;;;;;;;8.12;78.3;98855;;;;
2021/10/12 00:54:08;;;;;;;60.9;52;;;;;;;8.09199;79.56503;98848;;;;
2021/10/12 01:04:06;;;;;;;57.7;50;;;;;;;8.162067;79.82925;98846;;;;
2021/10/12 01:14:05;;;;;;;58.16667;50.96666;;;;;;;8.222105;80.19961;98840;;;;
2021/10/12 01:24:03;;;;;;;61.93333;52.36666;;;;;;;8.291876;80.33565;98828;;;;
2021/10/12 01:34:02;;;;;;;67.26666;54.7;;;;;;;8.281953;80.81942;98826;;;;
2021/10/12 01:44:01;;;;;;;63.1;50.9;;;;;;;8.272295;81.45242;98812;;;;
2021/10/12 01:53:59;;;;;;;60.1;49.5;;;;;;;8.302105;81.40762;98806;;;;
2021/10/12 02:03:58;;;;;;;66.7;46.8;;;;;;;8.321915;81.17577;98799;;;;
2021/10/12 02:13:57;;;;;;;58.5;46.7;;;;;;;8.281799;81.29817;98787;;;;
2021/10/12 02:23:55;;;;;;;53.65;44.7;;;;;;;8.191953;82.13417;98785;;;;
2021/10/12 02:33:53;;;;;;;54.7;42.2;;;;;;;8.321953;81.75551;98783;;;;
2021/10/12 02:43:52;;;;;;;50.7;41;;;;;;;8.282067;81.40627;98785;;;;
2021/10/12 02:53:51;;;;;;;47.13333;39.2;;;;;;;8.361877;81.33627;98789;;;;
2021/10/12 03:03:49;;;;;;;40.6;36.3;;;;;;;8.401991;81.13748;98791;;;;
2021/10/12 03:13:48;;;;;;;41.65;36.35;;;;;;;8.462295;80.91481;98787;;;;
2021/10/12 03:23:46;;;;;;;41.23333;36.26667;;;;;;;8.382295;80.91734;98771;;;;
2021/10/12 03:33:45;;;;;;;40.73333;35.83333;;;;;;;8.151915;80.96512;98763;;;;
2021/10/12 03:43:44;;;;;;;39.2;34;;;;;;;8.141914;80.51699;98761;;;;
2021/10/12 03:53:42;;;;;;;36.13333;31.06667;;;;;;;8.021914;80.87304;98767;;;;
2021/10/12 04:03:43;;;;;;;31.93333;27.3;;;;;;;8.032257;80.87923;98761;;;;
2021/10/12 04:13:42;;;;;;;29.53333;26.2;;;;;;;7.9418;81.25649;98736;;;;
2021/10/12 04:23:39;;;;;;;27.53333;24.36666;;;;;;;7.771761;80.25983;98720;;;;
2021/10/12 04:33:36;;;;;;;29.7;25.9;;;;;;;7.741991;80.83096;98714;;;;
2021/10/12 04:43:35;;;;;;;29.7;26.2;;;;;;;7.772181;80.92578;98708;;;;
2021/10/12 04:53:33;;;;;;;29.83333;25.83333;;;;;;;7.762105;80.79207;98700;;;;
2021/10/12 05:03:32;;;;;;;28.8;24.16667;;;;;;;7.731876;80.31877;98689;;;;
2021/10/12 05:13:31;;;;;;;25.56667;21.4;;;;;;;7.822143;80.11411;98685;;;;
2021/10/12 05:23:29;;;;;;;23.33333;19.73333;;;;;;;7.941876;80.04784;98689;;;;
2021/10/12 05:33:28;;;;;;;22.9;20.3;;;;;;;8.032295;80.17419;98679;;;;
2021/10/12 05:43:26;;;;;;;25.7;23;;;;;;;8.061723;79.90874;98677;;;;
2021/10/12 05:53:32;;;;;;;20.6;18.5;;;;;;;8.201953;80.12917;98690;;;;
2021/10/12 06:03:23;;;;;;;24.9;22.2;;;;;;;8.342257;80.55164;98685;;;;
2021/10/12 06:13:23;;;;;;;23.3;20.8;;;;;;;8.421914;80.21163;98681;;;;
2021/10/12 06:23:24;;;;;;;23.45;20.4;;;;;;;8.641799;79.35946;98685;;;;
2021/10/12 06:33:19;;;;;;;23.73333;20.26667;;;;;;;8.762219;78.60072;98685;;;;
2021/10/12 06:43:17;;;;;;;25.53333;20.43333;;;;;;;8.861685;78.52741;98683;;;;
2021/10/12 06:53:19;;;;;;;26.76667;20.63333;;;;;;;9.011684;78.53796;98689;;;;
2021/10/12 07:03:15;;;;;;;27.13333;21.03333;;;;;;;9.001838;77.99931;98689;;;;
2021/10/12 07:13:13;;;;;;;26.06667;20.83333;;;;;;;9.182143;77.38774;98690;;;;
2021/10/12 07:23:12;;;;;;;26.1;23.4;;;;;;;9.431723;77.30843;98692;;;;
2021/10/12 07:33:11;;;;;;;24.7;22.1;;;;;;;9.511723;76.81284;98696;;;;
2021/10/12 07:53:09;;;;;;;23.86667;21.3;;;;;;;9.481685;76.70591;98689;;;;
2021/10/12 08:03:09;;;;;;;25.83334;21.6;;;;;;;9.451685;76.47867;98689;;;;
2021/10/12 08:13:08;;;;;;;28.03333;21.76666;;;;;;;9.621838;76.24842;98671;;;;
2021/10/12 08:23:05;;;;;;;27.36667;21.23333;;;;;;;9.631684;75.70657;98673;;;;
2021/10/12 08:33:04;;;;;;;26.96667;21.26666;;;;;;;9.671952;75.44889;98667;;;;
2021/10/12 08:43:03;;;;;;;25.1;20.76666;;;;;;;9.601799;75.77497;98667;;;;
2021/10/12 08:53:03;;;;;;;27.1;21.4;;;;;;;10.45191;74.40277;98671;;;;
2021/10/12 09:03:15;;;;;;;24.6;20.6;;;;;;;10.46195;72.41237;98667;;;;
2021/10/12 09:12:59;;;;;;;25.25;21.45;;;;;;;10.86226;72.31932;98665;;;;
2021/10/12 09:22:58;;;;;;;25;20.7;;;;;;;11.00191;70.606;98663;;;;
2021/10/12 09:32:57;;;;;;;24.5;19.75;;;;;;;10.95203;70.5068;98659;;;;
2021/10/12 09:42:56;;;;;;;23.9;19.36667;;;;;;;11.64172;68.9771;98645;;;;
2021/10/12 09:52:55;;;;;;;23.5;19.1;;;;;;;11.60207;68.45053;98634;;;;
2021/10/12 10:02:54;;;;;;;22.75;18.55;;;;;;;11.54214;65.81348;98626;;;;
2021/10/12 10:12:53;;;;;;;23.6;17.93333;;;;;;;11.12168;67.75844;98620;;;;
2021/10/12 10:22:57;;;;;;;22.56667;17;;;;;;;11.49199;67.28743;98596;;;;
2021/10/12 10:32:51;;;;;;;26.2;18.6;;;;;;;11.05195;67.27795;98587;;;;
2021/10/12 10:42:50;;;;;;;22.2;17.8;;;;;;;11.55188;66.4698;98571;;;;
2021/10/12 10:52:49;;;;;;;24.95;17.25;;;;;;;11.67229;65.25011;98567;;;;
2021/10/12 11:12:47;;;;;;;26.9;13.7;;;;;;;11.91184;63.91544;98544;;;;
2021/10/12 11:22:48;;;;;;;19;11.05;;;;;;;12.51211;61.54488;98534;;;;
2021/10/12 11:32:45;;;;;;;19.86667;10.06667;;;;;;;12.49214;59.46505;98530;;;;
2021/10/12 11:42:44;;;;;;;15.7;5.5;;;;;;;12.17199;54.81827;98518;;;;
2021/10/12 12:02:43;;;;;;;7.8;2.3;;;;;;;12.38195;50.87675;98494;;;;
2021/10/12 12:12:42;;;;;;;5.2;3.1;;;;;;;12.79199;50.23488;98477;;;;
2021/10/12 12:22:41;;;;;;;9.549999;3.45;;;;;;;13.03191;51.53506;98467;;;;
2021/10/12 12:32:41;;;;;;;10.5;3.4;;;;;;;12.55222;51.36901;98461;;;;
2021/10/12 12:42:39;;;;;;;11.8;3.6;;;;;;;12.67203;52.44958;98445;;;;
2021/10/12 12:52:39;;;;;;;10.95;3.95;;;;;;;12.87226;52.35271;98441;;;;
2021/10/12 13:02:38;;;;;;;9.500001;3.6;;;;;;;12.99222;50.72076;98440;;;;
2021/10/12 13:12:37;;;;;;;7.800001;3.266667;;;;;;;12.65176;50.87573;98443;;;;
2021/10/12 13:22:36;;;;;;;8.5;3.266667;;;;;;;12.27211;52.82813;98434;;;;
2021/10/12 13:32:36;;;;;;;9.266666;3.933333;;;;;;;11.96218;54.96847;98432;;;;
2021/10/12 13:42:35;;;;;;;9.666666;5;;;;;;;11.71188;56.06929;98438;;;;
2021/10/12 13:52:34;;;;;;;8.433333;5.166667;;;;;;;11.47226;58.4002;98426;;;;
2021/10/12 14:02:33;;;;;;;8.633333;4.733334;;;;;;;11.89168;57.75444;98408;;;;
2021/10/12 14:12:32;;;;;;;7.933333;3.8;;;;;;;11.99226;57.3427;98398;;;;
2021/10/12 14:22:31;;;;;;;12.5;5.8;;;;;;;12.05;57.115;98393;;;;
2021/10/12 14:32:30;;;;;;;9.85;5.35;;;;;;;12.13207;57.55514;98381;;;;
2021/10/12 14:42:29;;;;;;;8.2;4.9;;;;;;;11.89168;58.0715;98377;;;;
2021/10/12 14:52:28;;;;;;;9.9;5.6;;;;;;;11.44222;59.84784;98371;;;;
2021/10/12 15:12:26;;;;;;;8.8;6.1;;;;;;;10.34226;61.99702;98365;;;;
2021/10/12 15:22:25;;;;;;;8.5;5.9;;;;;;;9.771953;63.39129;98361;;;;
2021/10/12 15:32:28;;;;;;;9.766666;6.833334;;;;;;;9.241953;64.193;98361;;;;
2021/10/12 15:42:23;;;;;;;13.4;9.966666;;;;;;;8.711684;66.55081;98357;;;;
2021/10/12 15:52:23;;;;;;;12.4;9.5;;;;;;;8.081799;68.9487;98357;;;;
2021/10/12 16:02:20;;;;;;;17.35;11.55;;;;;;;7.7718;69.32426;98349;;;;
2021/10/12 16:12:23;;;;;;;18.36667;13.33333;;;;;;;7.601991;70.79305;98349;;;;
2021/10/12 16:22:17;;;;;;;51.16667;39.9;;;;;;;7.631761;71.18826;98342;;;;
2021/10/12 16:32:17;;;;;;;48.73333;38.56667;;;;;;;7.581761;72.00789;98347;;;;
2021/10/12 16:42:14;;;;;;;45.66667;36.3;;;;;;;7.702105;71.55039;98359;;;;
2021/10/12 16:52:13;;;;;;;13.4;9.666665;;;;;;;7.88199;71.55594;98365;;;;
2021/10/12 17:02:11;;;;;;;12.66667;9.833332;;;;;;;8.021761;71.39541;98363;;;;
2021/10/12 17:12:10;;;;;;;13.23333;9.966665;;;;;;;8.072067;69.7812;98357;;;;
2021/10/12 17:22:09;;;;;;;16.9;11.8;;;;;;;8.092105;69.48621;98351;;;;
2021/10/12 17:42:06;;;;;;;19.2;15.1;;;;;;;8.012143;69.21106;98355;;;;
2021/10/12 17:52:04;;;;;;;15.8;12.3;;;;;;;7.921761;68.43125;98355;;;;
2021/10/12 18:02:03;;;;;;;16.2;13;;;;;;;7.661991;68.76587;98355;;;;
2021/10/12 18:12:02;;;;;;;17;15.2;;;;;;;7.312295;70.06522;98355;;;;
2021/10/12 18:22:03;;;;;;;18.2;15.35;;;;;;;7.212143;70.47546;98363;;;;
2021/10/12 18:32:00;;;;;;;18.83333;15.4;;;;;;;7.381799;70.20066;98369;;;;
2021/10/12 18:41:58;;;;;;;19.33333;15.13333;;;;;;;7.501761;69.82081;98379;;;;
2021/10/12 18:52:04;;;;;;;18.93333;14.53333;;;;;;;7.882181;69.06581;98379;;;;
2021/10/12 19:01:55;;;;;;;17.4;15.6;;;;;;;8.021761;67.97754;98375;;;;
2021/10/12 19:11:53;;;;;;;16.05;14.05;;;;;;;8.171838;67.60909;98373;;;;
2021/10/12 19:31:50;;;;;;;15.3;13.1;;;;;;;8.201877;67.56159;98371;;;;
2021/10/12 19:41:49;;;;;;;29.4;22.2;;;;;;;8.071991;68.82128;98373;;;;
2021/10/12 19:51:48;;;;;;;32.1;25.9;;;;;;;7.981761;69.41414;98389;;;;
2021/10/12 20:11:45;;;;;;;34.63333;27.63333;;;;;;;7.871876;70.16451;98381;;;;
2021/10/12 20:21:43;;;;;;;34.43333;28.36667;;;;;;;7.722295;70.9337;98375;;;;
2021/10/12 20:31:42;;;;;;;37.16666;29.43333;;;;;;;7.571799;71.56526;98369;;;;
2021/10/12 20:41:40;;;;;;;31.6;26.9;;;;;;;7.451838;71.71542;98367;;;;
2021/10/12 20:51:39;;;;;;;31.6;26.43333;;;;;;;7.541684;71.89668;98379;;;;
2021/10/12 21:01:37;;;;;;;27.7;24.5;;;;;;;7.492029;72.54401;98379;;;;
2021/10/12 21:11:38;;;;;;;29.2;22.8;;;;;;;7.671876;71.47132;98377;;;;
2021/10/12 21:21:34;;;;;;;31.55;25.55;;;;;;;7.721991;71.66825;98381;;;;
2021/10/12 21:31:33;;;;;;;39.33333;30.66667;;;;;;;7.771991;72.20539;98394;;;;
2021/10/12 21:41:31;;;;;;;44.53334;35.96666;;;;;;;7.701723;73.47351;98400;;;;
2021/10/12 21:51:30;;;;;;;50.1;44.8;;;;;;;7.622105;73.98203;98394;;;;
2021/10/12 22:01:28;;;;;;;49.45;39.1;;;;;;;7.631684;74.89119;98400;;;;
2021/10/12 22:11:27;;;;;;;46.83333;36.83333;;;;;;;7.592067;75.57104;98404;;;;
2021/10/12 22:21:25;;;;;;;40.83333;31.53333;;;;;;;7.531837;77.0575;98406;;;;
2021/10/12 22:31:24;;;;;;;32.6;28.5;;;;;;;7.532067;77.73022;98404;;;;
2021/10/12 22:41:22;;;;;;;33.5;24.4;;;;;;;7.652219;77.62742;98408;;;;
2021/10/12 22:51:21;;;;;;;28.9;19.6;;;;;;;7.611723;78.63231;98410;;;;
2021/10/12 23:01:19;;;;;;;25.2;19.8;;;;;;;7.751953;78.42655;98408;;;;
2021/10/12 23:11:18;;;;;;;21.8;19.5;;;;;;;7.771761;78.9462;98402;;;;
2021/10/12 23:21:17;;;;;;;24.3;20.9;;;;;;;7.762105;79.37784;98404;;;;
2021/10/12 23:31:15;;;;;;;28.75;21.45;;;;;;;7.742257;79.73891;98400;;;;
2021/10/12 23:41:13;;;;;;;27;19.7;;;;;;;7.772143;79.56465;98404;;;;
2021/10/12 23:51:13;;;;;;;19.7;15.3;;;;;;;7.851838;79.384;98406;;;;
